Time;durP1;ratioP1;P1;durP2;ratioP2;P2;SDS_P1;SDS_P2;PMS_P1;PMS_P2;Temp;Humidity;BMP_temperature;BMP_pressure;BME280_temperature;BME280_humidity;BME280_pressure;Samples;Min_cycle;Max_cycle;Signal;HPM_P1;HPM_P2
2023/05/09 00:01:58;;;;;;;34.58;28.92;;;15.10;99.90;;;;;;5013217;28;20046;-49
2023/05/09 00:04:24;;;;;;;36.00;29.77;;;15.00;99.90;;;;;;5013034;28;20049;-52
2023/05/09 00:06:50;;;;;;;32.30;28.42;;;15.00;99.90;;;;;;5013051;28;20042;-49
2023/05/09 00:09:16;;;;;;;33.13;28.95;;;15.10;99.90;;;;;;5013067;28;20044;-51
2023/05/09 00:11:42;;;;;;;36.85;30.27;;;15.40;99.90;;;;;;4994208;28;20046;-48
2023/05/09 00:14:08;;;;;;;41.55;31.52;;;15.10;99.90;;;;;;4993761;28;20038;-50
2023/05/09 00:16:35;;;;;;;37.95;31.40;;;15.10;99.90;;;;;;4993399;28;20507;-50
2023/05/09 00:19:02;;;;;;;39.95;32.25;;;15.40;99.90;;;;;;4993215;28;20057;-48
2023/05/09 00:21:28;;;;;;;36.40;29.80;;;15.10;99.90;;;;;;4993411;28;20097;-52
2023/05/09 00:23:53;;;;;;;39.25;31.35;;;15.10;99.90;;;;;;4993431;28;20524;-51
2023/05/09 00:26:20;;;;;;;34.42;29.83;;;15.10;99.90;;;;;;4993492;28;20046;-52
2023/05/09 00:28:46;;;;;;;36.97;29.98;;;15.10;99.90;;;;;;4993357;28;20038;-51
2023/05/09 00:31:12;;;;;;;35.03;29.15;;;15.10;99.90;;;;;;4993052;28;20560;-48
2023/05/09 00:33:38;;;;;;;36.05;28.98;;;15.40;99.90;;;;;;4993251;28;20052;-49
2023/05/09 00:36:03;;;;;;;43.42;31.88;;;15.20;99.90;;;;;;4993374;28;20050;-50
2023/05/09 00:38:29;;;;;;;38.45;30.08;;;15.10;99.90;;;;;;4992332;28;20049;-49
2023/05/09 00:40:55;;;;;;;38.28;30.92;;;15.20;99.90;;;;;;4993091;28;20411;-51
2023/05/09 00:43:20;;;;;;;36.25;30.20;;;15.20;99.90;;;;;;4993048;28;20042;-50
2023/05/09 00:45:47;;;;;;;40.25;30.55;;;15.20;99.90;;;;;;4992590;28;20050;-50
2023/05/09 00:48:14;;;;;;;34.45;29.88;;;15.20;99.90;;;;;;4993271;28;20049;-48
2023/05/09 00:50:40;;;;;;;32.40;28.20;;;15.30;99.90;;;;;;4992877;28;20049;-49
2023/05/09 00:53:06;;;;;;;34.70;28.70;;;15.30;99.90;;;;;;4993128;28;20046;-51
2023/05/09 00:55:32;;;;;;;35.92;28.65;;;15.30;99.90;;;;;;4992851;28;20485;-52
2023/05/09 00:57:58;;;;;;;30.40;26.98;;;15.30;99.90;;;;;;4993004;28;20489;-49
2023/05/09 01:00:24;;;;;;;28.92;25.67;;;15.30;99.90;;;;;;4992851;28;20039;-50
2023/05/09 01:02:52;;;;;;;31.02;26.73;;;15.60;99.90;;;;;;4992704;28;20050;-49
2023/05/09 01:05:19;;;;;;;30.17;25.90;;;15.30;99.90;;;;;;4992461;28;20121;-49
2023/05/09 01:08:05;;;;;;;32.30;26.60;;;15.30;99.90;;;;;;4992731;28;20069;-51
2023/05/09 01:11:10;;;;;;;32.42;27.17;;;15.30;99.90;;;;;;5001838;28;20046;-49
2023/05/09 01:14:03;;;;;;;29.83;25.13;;;15.20;99.90;;;;;;5012384;28;20056;-52
2023/05/09 01:16:50;;;;;;;33.58;25.73;;;15.20;99.90;;;;;;5012114;28;20053;-50
2023/05/09 01:19:37;;;;;;;34.55;26.90;;;15.20;99.90;;;;;;5011776;28;20168;-51
2023/05/09 01:22:07;;;;;;;30.30;26.98;;;15.20;99.90;;;;;;5012164;28;20038;-49
2023/05/09 01:25:07;;;;;;;33.13;26.45;;;15.10;99.90;;;;;;5011830;28;20050;-51
2023/05/09 01:27:47;;;;;;;33.65;29.02;;;15.00;99.90;;;;;;5012065;28;20052;-49
2023/05/09 01:30:15;;;;;;;32.95;26.63;;;15.10;99.90;;;;;;5011851;28;20089;-50
2023/05/09 01:32:45;;;;;;;31.92;27.20;;;15.10;99.90;;;;;;5011833;28;20107;-51
2023/05/09 01:35:13;;;;;;;33.67;28.05;;;15.10;99.90;;;;;;5011587;28;20563;-51
2023/05/09 01:37:42;;;;;;;31.23;26.52;;;15.40;99.90;;;;;;5011305;28;20037;-49
2023/05/09 01:40:13;;;;;;;32.80;27.17;;;15.10;99.90;;;;;;5011292;28;20050;-48
2023/05/09 01:42:43;;;;;;;35.90;28.48;;;15.00;99.90;;;;;;5011524;28;20046;-50
2023/05/09 01:45:11;;;;;;;31.88;25.70;;;15.00;99.90;;;;;;5011499;28;20050;-50
2023/05/09 01:47:37;;;;;;;31.25;26.50;;;15.00;99.90;;;;;;5009971;28;20574;-50
2023/05/09 01:50:05;;;;;;;35.55;28.35;;;15.00;99.90;;;;;;5011386;28;20120;-51
2023/05/09 01:52:32;;;;;;;32.10;26.58;;;14.90;99.90;;;;;;5011318;28;20458;-51
2023/05/09 01:55:00;;;;;;;35.03;25.63;;;15.20;99.90;;;;;;5011457;28;20125;-49
2023/05/09 01:57:28;;;;;;;26.60;23.77;;;14.90;99.90;;;;;;5011305;28;20124;-51
2023/05/09 01:59:57;;;;;;;26.20;22.42;;;14.90;99.90;;;;;;5011497;28;20049;-51
2023/05/09 02:02:25;;;;;;;23.98;19.80;;;15.00;99.90;;;;;;5011270;28;20057;-49
2023/05/09 02:04:54;;;;;;;20.00;17.80;;;14.80;99.90;;;;;;5010812;28;20382;-49
2023/05/09 02:07:20;;;;;;;18.52;16.40;;;14.80;99.90;;;;;;5011149;28;20046;-52
2023/05/09 02:09:48;;;;;;;19.88;16.25;;;14.80;99.90;;;;;;5023109;28;20264;-51
2023/05/09 02:12:14;;;;;;;20.42;16.92;;;14.80;99.90;;;;;;4991661;28;20042;-52
2023/05/09 02:14:39;;;;;;;20.13;17.25;;;14.60;99.90;;;;;;4991302;28;20046;-50
2023/05/09 02:17:08;;;;;;;18.85;15.20;;;14.60;99.90;;;;;;4991619;28;20112;-48
2023/05/09 02:19:34;;;;;;;17.67;15.43;;;14.60;99.90;;;;;;4991145;28;20049;-50
2023/05/09 02:22:01;;;;;;;23.63;17.30;;;14.50;99.90;;;;;;4991340;28;20484;-51
2023/05/09 02:24:27;;;;;;;18.48;16.05;;;14.50;99.90;;;;;;4991112;28;20535;-52
2023/05/09 02:26:54;;;;;;;17.10;15.30;;;14.50;99.90;;;;;;4991313;28;20034;-50
2023/05/09 02:29:23;;;;;;;16.98;15.13;;;14.50;99.90;;;;;;4991108;28;20053;-51
2023/05/09 02:31:51;;;;;;;15.63;13.98;;;14.80;99.90;;;;;;4991249;28;20069;-52
2023/05/09 02:34:18;;;;;;;17.73;14.27;;;14.90;99.90;;;;;;4991105;28;20397;-55
2023/05/09 02:36:44;;;;;;;15.35;13.60;;;14.50;99.90;;;;;;4991478;28;20050;-53
2023/05/09 02:39:10;;;;;;;14.35;12.80;;;14.70;99.90;;;;;;4991260;28;20046;-53
2023/05/09 02:41:36;;;;;;;16.35;13.70;;;14.60;99.90;;;;;;4991461;28;20050;-54
2023/05/09 02:44:02;;;;;;;15.25;13.60;;;14.50;99.90;;;;;;4991129;28;20061;-52
2023/05/09 02:46:28;;;;;;;14.60;13.10;;;14.40;99.90;;;;;;4990985;28;20112;-53
2023/05/09 02:48:54;;;;;;;14.93;13.00;;;14.40;99.90;;;;;;4991259;28;20054;-50
2023/05/09 02:51:20;;;;;;;15.65;12.98;;;14.50;99.90;;;;;;4991100;28;20042;-53
2023/05/09 02:53:45;;;;;;;14.85;12.68;;;14.40;99.90;;;;;;4991229;28;20121;-52
2023/05/09 02:56:11;;;;;;;13.93;11.95;;;14.40;99.90;;;;;;4991153;28;20081;-49
2023/05/09 02:58:37;;;;;;;15.90;13.63;;;14.40;99.90;;;;;;4990702;28;20053;-54
2023/05/09 03:01:03;;;;;;;15.93;13.20;;;14.60;99.90;;;;;;4990542;28;20053;-50
2023/05/09 03:03:32;;;;;;;15.65;12.25;;;14.40;99.90;;;;;;4994179;28;20046;-48
2023/05/09 03:05:58;;;;;;;15.85;13.30;;;14.40;99.90;;;;;;4994987;28;20053;-49
2023/05/09 03:08:23;;;;;;;15.95;12.05;;;14.30;99.90;;;;;;4995068;28;20125;-51
2023/05/09 03:10:50;;;;;;;19.48;13.70;;;14.70;99.90;;;;;;4994680;28;20086;-51
2023/05/09 03:13:15;;;;;;;15.73;12.80;;;14.30;99.90;;;;;;4994860;28;20042;-51
2023/05/09 03:15:41;;;;;;;16.73;12.57;;;14.20;99.90;;;;;;4994541;28;20049;-51
2023/05/09 03:18:07;;;;;;;14.48;13.00;;;14.30;99.90;;;;;;5009380;28;20050;-52
2023/05/09 03:20:32;;;;;;;15.65;12.75;;;14.50;99.90;;;;;;4994703;28;20133;-49
2023/05/09 03:22:58;;;;;;;16.05;12.75;;;14.30;99.90;;;;;;4994431;28;20412;-51
2023/05/09 03:25:25;;;;;;;15.63;13.02;;;14.10;99.90;;;;;;4994747;28;20042;-52
2023/05/09 03:27:50;;;;;;;16.67;12.85;;;14.20;99.90;;;;;;4994576;28;20098;-52
2023/05/09 03:30:16;;;;;;;16.13;12.82;;;14.20;99.90;;;;;;4994660;28;20435;-52
2023/05/09 03:32:42;;;;;;;15.32;13.32;;;14.20;99.90;;;;;;4994741;28;20807;-52
2023/05/09 03:35:07;;;;;;;15.60;13.68;;;14.00;99.90;;;;;;4994879;28;20431;-48
2023/05/09 03:37:33;;;;;;;17.63;12.63;;;14.10;99.90;;;;;;4994487;28;20122;-52
2023/05/09 03:39:59;;;;;;;17.10;14.30;;;14.10;99.90;;;;;;4994502;28;20514;-50
2023/05/09 03:42:24;;;;;;;15.45;12.75;;;14.30;99.90;;;;;;4994199;28;20559;-51
2023/05/09 03:44:50;;;;;;;15.77;13.63;;;14.10;99.90;;;;;;4994341;28;20045;-52
2023/05/09 03:47:16;;;;;;;19.48;15.40;;;14.10;99.90;;;;;;4994287;28;20034;-52
2023/05/09 03:49:41;;;;;;;18.45;15.27;;;14.10;99.90;;;;;;4994124;28;20041;-52
2023/05/09 03:52:07;;;;;;;17.73;14.45;;;14.00;99.90;;;;;;4994095;28;20065;-51
2023/05/09 03:54:32;;;;;;;18.65;15.48;;;13.90;99.90;;;;;;4994132;28;20126;-48
2023/05/09 03:56:58;;;;;;;16.80;15.00;;;14.00;99.90;;;;;;4992883;28;20100;-50
2023/05/09 03:59:24;;;;;;;17.50;14.98;;;14.00;99.90;;;;;;4994069;28;20117;-49
2023/05/09 04:01:49;;;;;;;18.00;15.02;;;14.00;99.90;;;;;;4993792;28;20046;-50
2023/05/09 04:04:15;;;;;;;18.48;15.65;;;14.00;99.90;;;;;;4993899;28;20115;-51
2023/05/09 04:06:41;;;;;;;19.75;16.40;;;14.00;99.90;;;;;;4993888;28;20030;-51
2023/05/09 04:09:06;;;;;;;16.17;14.43;;;14.00;99.90;;;;;;4993637;28;20074;-49
2023/05/09 04:11:32;;;;;;;18.77;15.00;;;14.00;99.90;;;;;;5011312;28;20091;-49
2023/05/09 04:13:58;;;;;;;20.25;16.63;;;14.00;99.90;;;;;;5013044;28;20053;-51
2023/05/09 04:16:24;;;;;;;18.55;15.93;;;14.10;99.90;;;;;;5013002;28;20455;-52
2023/05/09 04:18:49;;;;;;;19.15;16.80;;;14.00;99.90;;;;;;5012953;28;20046;-49
2023/05/09 04:21:15;;;;;;;20.08;15.98;;;13.90;99.90;;;;;;5012969;28;20165;-50
2023/05/09 04:23:42;;;;;;;21.65;16.55;;;13.90;99.90;;;;;;5012594;28;20096;-51
2023/05/09 04:26:09;;;;;;;18.73;15.60;;;13.90;99.90;;;;;;5012933;28;20384;-50
2023/05/09 04:28:35;;;;;;;23.08;17.75;;;14.00;99.90;;;;;;5013066;28;20667;-51
2023/05/09 04:31:00;;;;;;;21.15;17.70;;;13.90;99.90;;;;;;5012739;28;20045;-49
2023/05/09 04:33:27;;;;;;;19.88;17.67;;;13.90;99.90;;;;;;5012779;28;20046;-53
2023/05/09 04:35:53;;;;;;;22.17;18.10;;;13.90;99.90;;;;;;5013031;28;20042;-50
2023/05/09 04:38:20;;;;;;;21.17;16.95;;;13.90;99.90;;;;;;5013019;28;20057;-51
2023/05/09 04:40:46;;;;;;;25.10;18.85;;;13.90;99.90;;;;;;5012938;28;20492;-53
2023/05/09 04:43:11;;;;;;;22.40;17.60;;;13.90;99.90;;;;;;5012982;28;20049;-49
2023/05/09 04:45:37;;;;;;;20.17;17.15;;;13.90;99.90;;;;;;5013175;28;20054;-51
2023/05/09 04:48:03;;;;;;;21.65;17.92;;;13.80;99.90;;;;;;5012891;28;20030;-51
2023/05/09 04:50:29;;;;;;;21.33;17.70;;;13.90;99.90;;;;;;5013260;28;20095;-52
2023/05/09 04:52:54;;;;;;;22.05;18.02;;;13.90;99.90;;;;;;5012854;28;20042;-49
2023/05/09 04:55:20;;;;;;;22.38;17.95;;;14.00;99.90;;;;;;5012654;28;20057;-50
2023/05/09 04:57:46;;;;;;;23.00;19.17;;;14.20;99.90;;;;;;5028132;28;20267;-48
2023/05/09 05:00:12;;;;;;;20.88;17.55;;;14.00;99.90;;;;;;5012597;28;20034;-52
2023/05/09 05:02:38;;;;;;;20.63;17.85;;;14.00;99.90;;;;;;5012504;28;20129;-50
2023/05/09 05:05:04;;;;;;;25.17;18.13;;;14.00;99.90;;;;;;5011988;28;20125;-50
2023/05/09 05:07:29;;;;;;;23.98;20.23;;;14.10;99.90;;;;;;5012248;28;20368;-50
2023/05/09 05:09:55;;;;;;;22.17;18.23;;;14.10;99.90;;;;;;5007468;28;20521;-52
2023/05/09 05:12:21;;;;;;;25.88;20.38;;;14.30;99.90;;;;;;4992466;28;20104;-52
2023/05/09 05:14:47;;;;;;;24.75;19.67;;;14.20;99.90;;;;;;4992672;28;20129;-51
2023/05/09 05:17:12;;;;;;;25.10;18.75;;;14.30;99.90;;;;;;4992486;28;20097;-51
2023/05/09 05:19:38;;;;;;;22.67;17.25;;;14.20;99.90;;;;;;4992272;28;20053;-52
2023/05/09 05:22:04;;;;;;;22.73;18.88;;;14.30;99.90;;;;;;4992161;28;20042;-51
2023/05/09 05:24:29;;;;;;;22.58;19.63;;;14.30;99.90;;;;;;4991633;28;20055;-49
2023/05/09 05:26:55;;;;;;;21.35;19.05;;;14.30;99.90;;;;;;4992465;28;20046;-52
2023/05/09 05:29:21;;;;;;;21.83;17.83;;;14.30;99.90;;;;;;4992405;28;20563;-49
2023/05/09 05:31:46;;;;;;;24.05;19.52;;;14.40;99.90;;;;;;4992179;28;20516;-52
2023/05/09 05:34:12;;;;;;;21.27;18.95;;;14.40;99.90;;;;;;4992032;28;20046;-51
2023/05/09 05:36:37;;;;;;;24.13;20.15;;;14.40;99.90;;;;;;4992053;28;20038;-51
2023/05/09 05:39:03;;;;;;;25.00;19.88;;;14.40;99.90;;;;;;4992595;28;20046;-51
2023/05/09 05:41:29;;;;;;;22.73;19.52;;;14.40;99.90;;;;;;4991944;28;20444;-50
2023/05/09 05:43:54;;;;;;;22.83;19.45;;;14.40;99.90;;;;;;4991626;28;20042;-53
2023/05/09 05:46:20;;;;;;;21.95;19.60;;;14.50;99.90;;;;;;4992037;28;20034;-50
2023/05/09 05:48:46;;;;;;;26.20;20.80;;;14.40;99.90;;;;;;4991659;28;20105;-53
2023/05/09 05:51:11;;;;;;;23.23;18.83;;;14.50;99.90;;;;;;4991741;28;20042;-51
2023/05/09 05:53:37;;;;;;;20.95;18.48;;;14.50;99.90;;;;;;4991784;28;20042;-52
2023/05/09 05:56:03;;;;;;;23.02;18.77;;;14.50;99.90;;;;;;4991564;28;20054;-51
2023/05/09 05:58:28;;;;;;;23.52;19.70;;;14.50;99.90;;;;;;4991834;28;20053;-53
2023/05/09 06:00:54;;;;;;;22.77;19.85;;;14.50;99.90;;;;;;4991600;28;20457;-51
2023/05/09 06:03:20;;;;;;;22.50;20.02;;;14.50;99.90;;;;;;4991041;28;20169;-50
2023/05/09 06:05:46;;;;;;;24.38;20.08;;;14.80;99.90;;;;;;4991005;28;20049;-50
2023/05/09 06:08:12;;;;;;;26.35;21.00;;;14.60;99.90;;;;;;4990751;28;20076;-52
2023/05/09 06:10:38;;;;;;;25.23;21.17;;;14.60;99.90;;;;;;5000970;28;20124;-52
2023/05/09 06:13:03;;;;;;;26.95;21.60;;;14.60;99.90;;;;;;5010427;28;20050;-50
2023/05/09 06:15:29;;;;;;;25.98;20.77;;;14.70;99.90;;;;;;5010947;28;20555;-51
2023/05/09 06:17:55;;;;;;;27.00;21.67;;;14.70;99.90;;;;;;5011123;28;20088;-53
2023/05/09 06:20:20;;;;;;;24.60;21.48;;;14.70;99.90;;;;;;5011311;28;20042;-53
2023/05/09 06:22:46;;;;;;;24.98;21.10;;;14.70;99.90;;;;;;5010959;28;20060;-50
2023/05/09 06:25:12;;;;;;;27.95;22.20;;;14.80;99.90;;;;;;5011229;28;20092;-52
2023/05/09 06:27:38;;;;;;;26.00;21.63;;;14.80;99.90;;;;;;5011356;28;20037;-50
2023/05/09 06:30:04;;;;;;;26.67;22.65;;;14.80;99.90;;;;;;5010754;28;20077;-53
2023/05/09 06:32:29;;;;;;;26.23;21.77;;;14.90;99.90;;;;;;5011107;28;20054;-50
2023/05/09 06:34:55;;;;;;;26.83;22.90;;;14.90;99.90;;;;;;5010630;28;20047;-53
2023/05/09 06:37:21;;;;;;;25.30;20.77;;;15.00;99.90;;;;;;5009992;28;20044;-52
2023/05/09 06:39:47;;;;;;;27.13;22.42;;;15.00;99.90;;;;;;5010812;28;20093;-50
2023/05/09 06:42:12;;;;;;;25.67;22.00;;;15.10;99.90;;;;;;5010420;28;20100;-51
2023/05/09 06:44:38;;;;;;;27.92;21.45;;;15.10;99.90;;;;;;5010528;28;20077;-52
2023/05/09 06:47:03;;;;;;;24.20;20.65;;;15.20;99.90;;;;;;5010592;28;20476;-49
2023/05/09 06:49:29;;;;;;;26.63;21.30;;;15.20;99.90;;;;;;5010536;28;20041;-51
2023/05/09 06:51:55;;;;;;;22.27;19.90;;;15.30;99.90;;;;;;5024656;28;20152;-48
2023/05/09 06:54:20;;;;;;;25.08;21.83;;;15.30;99.90;;;;;;5009362;28;20046;-49
2023/05/09 06:56:46;;;;;;;26.80;22.13;;;15.40;99.90;;;;;;5009330;28;20042;-49
2023/05/09 06:59:12;;;;;;;24.02;21.48;;;15.40;99.90;;;;;;5009178;28;20038;-51
2023/05/09 07:01:41;;;;;;;26.35;22.17;;;15.40;99.90;;;;;;5009480;28;20153;-51
2023/05/09 07:04:06;;;;;;;26.08;20.90;;;15.40;99.90;;;;;;5010329;28;20050;-52
2023/05/09 07:06:32;;;;;;;26.67;22.00;;;15.50;99.90;;;;;;5010395;28;20042;-52
2023/05/09 07:08:58;;;;;;;28.05;21.60;;;15.50;99.90;;;;;;5010175;28;20045;-53
2023/05/09 07:11:23;;;;;;;26.00;21.55;;;15.50;99.90;;;;;;4993978;28;20042;-52
2023/05/09 07:13:49;;;;;;;27.92;22.02;;;15.50;99.90;;;;;;4990830;28;20463;-47
2023/05/09 07:16:17;;;;;;;28.73;22.25;;;15.60;99.90;;;;;;4990452;28;20043;-53
2023/05/09 07:18:43;;;;;;;28.75;23.13;;;15.60;99.90;;;;;;4990676;28;20053;-53
2023/05/09 07:21:08;;;;;;;30.65;22.05;;;15.60;99.90;;;;;;4990537;28;20046;-55
2023/05/09 07:23:34;;;;;;;31.58;23.95;;;15.60;99.90;;;;;;4990234;28;20086;-54
2023/05/09 07:26:00;;;;;;;27.95;23.20;;;15.60;99.90;;;;;;4989446;28;20508;-54
2023/05/09 07:28:26;;;;;;;29.58;22.92;;;15.60;99.90;;;;;;4991075;28;20077;-54
2023/05/09 07:30:54;;;;;;;28.35;22.88;;;15.60;99.90;;;;;;4990931;28;20038;-54
2023/05/09 07:33:19;;;;;;;30.90;24.20;;;15.50;99.90;;;;;;4990818;28;20679;-52
2023/05/09 07:35:45;;;;;;;35.55;25.77;;;15.50;99.90;;;;;;4990813;28;20042;-54
2023/05/09 07:38:11;;;;;;;35.70;24.25;;;15.50;99.90;;;;;;4991156;28;20049;-54
2023/05/09 07:40:37;;;;;;;40.88;27.13;;;15.50;99.90;;;;;;5006201;28;20046;-54
2023/05/09 07:43:03;;;;;;;33.78;24.60;;;15.50;99.90;;;;;;4990863;28;20077;-53
2023/05/09 07:45:29;;;;;;;35.60;24.70;;;15.50;99.90;;;;;;4990862;28;20384;-53
2023/05/09 07:47:55;;;;;;;34.55;24.65;;;15.50;99.90;;;;;;4991475;28;20045;-53
2023/05/09 07:50:22;;;;;;;35.15;25.83;;;15.40;99.90;;;;;;4994371;28;20101;-54
2023/05/09 07:52:48;;;;;;;36.17;25.92;;;15.40;99.90;;;;;;4994442;28;20124;-53
2023/05/09 07:55:14;;;;;;;36.30;24.98;;;15.40;99.90;;;;;;4994592;28;20389;-53
2023/05/09 07:57:39;;;;;;;34.15;24.63;;;15.40;99.90;;;;;;4992790;28;20112;-54
2023/05/09 08:00:06;;;;;;;36.00;25.52;;;15.50;99.90;;;;;;4994321;28;20042;-52
2023/05/09 08:02:32;;;;;;;37.20;26.88;;;15.50;99.90;;;;;;4993991;28;20436;-54
2023/05/09 08:04:58;;;;;;;35.22;26.30;;;15.50;99.90;;;;;;4993728;28;20045;-53
2023/05/09 08:07:23;;;;;;;35.63;26.02;;;15.50;99.90;;;;;;4993548;28;20049;-54
2023/05/09 08:09:49;;;;;;;32.95;24.25;;;15.50;99.90;;;;;;4996340;28;20049;-54
2023/05/09 08:12:15;;;;;;;36.38;25.98;;;15.60;99.90;;;;;;5013542;28;20037;-52
2023/05/09 08:14:40;;;;;;;35.65;26.73;;;15.60;99.90;;;;;;5013276;28;20037;-54
2023/05/09 08:17:06;;;;;;;42.33;27.90;;;15.60;99.90;;;;;;5013342;28;20124;-54
2023/05/09 08:19:32;;;;;;;40.35;27.67;;;15.70;99.90;;;;;;5012997;28;20522;-53
2023/05/09 08:21:57;;;;;;;37.92;28.40;;;15.70;99.90;;;;;;5003032;28;20061;-53
2023/05/09 08:24:23;;;;;;;42.17;28.63;;;15.80;99.90;;;;;;4975521;28;20121;-60
2023/05/09 08:26:48;;;;;;;42.88;28.45;;;15.80;99.90;;;;;;4991019;28;20089;-58
2023/05/09 08:29:15;;;;;;;42.72;29.02;;;15.90;99.90;;;;;;4999213;28;20038;-58
2023/05/09 08:31:40;;;;;;;44.53;28.08;;;15.90;99.90;;;;;;5005867;28;20409;-57
2023/05/09 08:34:06;;;;;;;39.42;27.90;;;16.00;99.90;;;;;;4987022;28;20049;-57
2023/05/09 08:36:32;;;;;;;39.70;29.30;;;16.00;99.90;;;;;;5005552;28;20034;-57
2023/05/09 08:38:58;;;;;;;44.20;28.92;;;16.10;99.90;;;;;;5005212;28;20527;-58
2023/05/09 08:41:26;;;;;;;42.38;28.20;;;16.20;99.90;;;;;;5005656;28;20052;-58
2023/05/09 08:43:55;;;;;;;44.13;28.40;;;16.20;99.90;;;;;;5004982;28;20050;-60
2023/05/09 08:46:38;;;;;;;40.33;25.92;;;16.20;99.90;;;;;;5005768;28;20029;-61
2023/05/09 08:49:07;;;;;;;41.20;27.17;;;16.30;99.90;;;;;;5004824;28;20486;-56
2023/05/09 08:51:35;;;;;;;43.10;30.13;;;16.30;99.90;;;;;;5005404;28;20034;-60
2023/05/09 08:54:01;;;;;;;43.35;28.67;;;16.50;99.90;;;;;;5004396;28;20030;-58
2023/05/09 08:56:28;;;;;;;41.30;28.45;;;16.50;99.90;;;;;;5005047;28;20124;-57
2023/05/09 08:58:55;;;;;;;43.83;30.63;;;16.60;99.90;;;;;;5005048;28;20060;-56
2023/05/09 09:01:22;;;;;;;42.50;30.02;;;16.70;99.90;;;;;;5004202;28;20053;-57
2023/05/09 09:03:48;;;;;;;42.45;29.60;;;16.80;99.90;;;;;;5003921;28;20192;-59
2023/05/09 09:06:15;;;;;;;41.85;26.75;;;16.80;99.90;;;;;;5005577;28;20109;-56
2023/05/09 09:08:42;;;;;;;39.78;27.60;;;16.80;99.90;;;;;;5005243;28;20042;-57
2023/05/09 09:11:12;;;;;;;43.40;27.90;;;16.80;99.90;;;;;;5003789;28;20486;-57
2023/05/09 09:13:40;;;;;;;40.65;28.75;;;16.80;99.90;;;;;;5004689;28;20029;-59
2023/05/09 09:16:10;;;;;;;42.00;28.17;;;16.80;99.90;;;;;;5002631;28;20484;-59
2023/05/09 09:18:35;;;;;;;39.15;26.65;;;16.90;99.90;;;;;;5005002;28;20408;-56
2023/05/09 09:21:14;;;;;;;39.42;26.35;;;17.00;99.90;;;;;;5004866;28;20038;-59
2023/05/09 09:23:41;;;;;;;45.15;26.58;;;17.00;99.90;;;;;;5004480;28;20038;-53
2023/05/09 09:26:07;;;;;;;34.05;25.88;;;17.00;99.90;;;;;;4976542;28;20030;-59
2023/05/09 09:28:33;;;;;;;38.80;26.60;;;17.10;99.90;;;;;;5002493;28;20029;-48
2023/05/09 09:31:00;;;;;;;39.00;27.02;;;17.10;99.90;;;;;;5004977;28;20585;-46
2023/05/09 09:33:28;;;;;;;37.15;26.35;;;17.10;99.90;;;;;;5005170;28;20038;-50
2023/05/09 09:35:54;;;;;;;35.42;24.52;;;17.20;99.90;;;;;;5003569;28;20034;-59
2023/05/09 09:38:21;;;;;;;36.38;25.83;;;17.20;99.90;;;;;;5004789;28;20460;-58
2023/05/09 09:40:50;;;;;;;32.55;24.65;;;17.30;99.90;;;;;;5004460;28;20032;-56
2023/05/09 09:43:16;;;;;;;32.60;24.15;;;17.40;99.90;;;;;;5003601;28;20046;-57
2023/05/09 09:45:42;;;;;;;34.10;24.98;;;17.50;99.90;;;;;;5003976;28;20053;-51
2023/05/09 09:48:07;;;;;;;32.65;23.70;;;17.60;99.90;;;;;;5003929;28;20030;-53
2023/05/09 09:50:33;;;;;;;36.28;25.98;;;17.60;99.90;;;;;;5003368;28;20495;-51
2023/05/09 09:52:59;;;;;;;31.45;24.10;;;17.60;99.90;;;;;;5003101;28;20535;-56
2023/05/09 09:55:25;;;;;;;33.00;23.05;;;17.70;99.90;;;;;;5004061;28;20109;-56
2023/05/09 09:57:51;;;;;;;35.45;24.95;;;17.80;99.90;;;;;;5001969;28;20128;-56
2023/05/09 10:00:27;;;;;;;38.10;26.15;;;17.90;99.90;;;;;;5002854;28;20037;-56
2023/05/09 10:02:55;;;;;;;36.90;24.33;;;17.90;99.90;;;;;;5002656;28;20049;-54
2023/05/09 10:05:25;;;;;;;32.67;25.42;;;17.90;99.90;;;;;;5002885;28;20029;-53
2023/05/09 10:08:00;;;;;;;39.20;26.77;;;17.80;99.90;;;;;;5002968;28;20091;-56
2023/05/09 10:10:30;;;;;;;38.30;26.33;;;17.80;99.90;;;;;;5001392;28;20042;-57
2023/05/09 10:13:08;;;;;;;35.58;26.60;;;17.70;99.90;;;;;;5003921;28;20030;-51
2023/05/09 10:15:35;;;;;;;32.35;24.73;;;17.60;99.90;;;;;;5003686;28;20103;-56
2023/05/09 10:18:03;;;;;;;34.97;26.63;;;17.60;99.90;;;;;;5003370;28;20458;-53
2023/05/09 10:20:30;;;;;;;34.53;26.08;;;17.50;99.90;;;;;;5003784;28;20438;-55
2023/05/09 10:22:59;;;;;;;35.33;26.10;;;17.50;99.90;;;;;;5002717;28;20492;-55
2023/05/09 10:25:39;;;;;;;32.90;25.98;;;17.50;99.90;;;;;;4979654;28;20069;-55
2023/05/09 10:28:15;;;;;;;36.28;26.75;;;17.50;99.90;;;;;;4995520;28;20074;-55
2023/05/09 10:30:56;;;;;;;37.92;27.15;;;17.50;99.90;;;;;;5001783;28;20037;-55
2023/05/09 10:33:30;;;;;;;36.10;25.45;;;17.50;99.90;;;;;;5001815;28;20037;-58
2023/05/09 10:35:59;;;;;;;36.88;27.35;;;17.60;99.90;;;;;;5002351;28;20087;-55
2023/05/09 10:38:25;;;;;;;37.20;26.98;;;17.70;99.90;;;;;;5002211;28;20042;-55
2023/05/09 10:40:53;;;;;;;37.92;27.23;;;17.80;99.90;;;;;;5002250;28;20172;-56
2023/05/09 10:43:20;;;;;;;36.20;28.15;;;17.90;99.90;;;;;;5002130;28;20124;-54
2023/05/09 10:45:46;;;;;;;37.45;27.13;;;18.00;99.90;;;;;;5001454;28;20404;-55
2023/05/09 10:48:12;;;;;;;39.88;28.00;;;18.00;99.90;;;;;;5002616;28;20117;-55
2023/05/09 10:50:41;;;;;;;43.15;29.13;;;18.00;99.90;;;;;;5003316;28;20081;-56
2023/05/09 10:53:12;;;;;;;41.33;27.65;;;17.90;99.90;;;;;;5002910;28;20030;-56
2023/05/09 10:55:49;;;;;;;37.75;26.73;;;17.80;99.90;;;;;;5002807;28;20120;-55
2023/05/09 10:58:19;;;;;;;41.42;29.50;;;17.70;99.90;;;;;;5002007;28;20050;-57
2023/05/09 11:00:49;;;;;;;42.75;29.58;;;17.60;99.90;;;;;;5001703;28;20499;-54
2023/05/09 11:03:17;;;;;;;44.25;30.42;;;17.50;99.90;;;;;;5003312;28;20396;-54
2023/05/09 11:05:48;;;;;;;40.40;30.00;;;17.50;99.90;;;;;;5003504;28;20034;-55
2023/05/09 11:08:18;;;;;;;42.85;29.10;;;17.40;99.90;;;;;;5003088;28;20039;-54
2023/05/09 11:10:44;;;;;;;45.10;30.60;;;17.50;99.90;;;;;;5002389;28;20121;-55
2023/05/09 11:13:09;;;;;;;42.45;29.48;;;17.50;99.90;;;;;;5003483;28;20128;-55
2023/05/09 11:15:48;;;;;;;42.45;29.98;;;17.60;99.90;;;;;;5002909;28;20034;-56
2023/05/09 11:18:14;;;;;;;44.15;30.58;;;17.70;99.90;;;;;;5003030;28;20654;-54
2023/05/09 11:20:47;;;;;;;40.33;27.92;;;17.70;99.90;;;;;;5003468;28;20034;-55
2023/05/09 11:23:16;;;;;;;39.65;28.42;;;17.70;99.90;;;;;;5004288;28;20045;-54
2023/05/09 11:25:44;;;;;;;43.35;30.92;;;17.70;99.90;;;;;;4982774;28;20578;-55
2023/05/09 11:28:11;;;;;;;45.53;29.85;;;17.70;99.90;;;;;;4997262;28;20034;-54
2023/05/09 11:30:41;;;;;;;48.60;32.22;;;17.70;99.90;;;;;;5004861;28;20037;-55
2023/05/09 11:33:26;;;;;;;51.75;30.73;;;17.70;99.90;;;;;;5005457;28;20088;-53
2023/05/09 11:36:29;;;;;;;50.50;32.17;;;17.60;99.90;;;;;;5006205;28;20476;-54
2023/05/09 11:39:10;;;;;;;53.75;31.50;;;17.60;99.90;;;;;;4948583;28;20050;-55
2023/05/09 11:41:45;;;;;;;53.13;32.10;;;17.60;99.90;;;;;;5000923;28;20046;-55
2023/05/09 11:44:14;;;;;;;51.55;32.08;;;17.60;99.90;;;;;;5006414;28;20528;-55
2023/05/09 11:46:40;;;;;;;50.58;32.13;;;17.70;99.90;;;;;;5006783;28;20041;-55
2023/05/09 11:49:07;;;;;;;54.13;32.40;;;17.90;99.90;;;;;;5006827;28;20476;-54
2023/05/09 11:51:37;;;;;;;54.28;32.95;;;18.10;99.90;;;;;;5003982;28;20081;-54
2023/05/09 11:54:04;;;;;;;51.47;32.70;;;18.30;99.90;;;;;;5001939;28;20120;-54
2023/05/09 11:56:30;;;;;;;51.75;32.50;;;18.40;99.90;;;;;;5005868;28;20037;-55
2023/05/09 11:58:57;;;;;;;41.30;28.20;;;18.60;99.90;;;;;;5006037;28;20399;-54
2023/05/09 12:01:23;;;;;;;44.58;29.77;;;18.60;99.90;;;;;;5005914;28;20046;-55
2023/05/09 12:03:49;;;;;;;43.03;29.80;;;18.60;99.90;;;;;;5005934;28;20412;-55
2023/05/09 12:06:18;;;;;;;46.00;29.00;;;18.60;99.90;;;;;;5005965;28;20030;-54
2023/05/09 12:08:45;;;;;;;42.55;29.02;;;18.40;99.90;;;;;;5005628;28;20038;-55
2023/05/09 12:11:12;;;;;;;47.58;32.28;;;18.60;99.90;;;;;;5004712;28;20030;-53
2023/05/09 12:13:48;;;;;;;54.38;33.67;;;18.20;99.90;;;;;;5006351;28;20038;-50
2023/05/09 12:16:16;;;;;;;58.78;37.05;;;18.10;99.90;;;;;;5006059;28;20419;-54
2023/05/09 12:18:49;;;;;;;70.97;37.67;;;18.00;99.90;;;;;;5004251;28;20049;-50
2023/05/09 12:21:16;;;;;;;68.25;36.97;;;17.80;99.90;;;;;;5003963;28;20488;-54
2023/05/09 12:23:42;;;;;;;51.97;32.35;;;17.70;99.90;;;;;;5003669;28;20488;-58
2023/05/09 12:26:08;;;;;;;61.40;34.95;;;17.50;99.90;;;;;;4976925;28;20145;-54
2023/05/09 12:28:35;;;;;;;55.90;33.25;;;17.40;99.90;;;;;;4999003;28;20042;-51
2023/05/09 12:31:01;;;;;;;48.15;30.73;;;17.40;99.90;;;;;;5001760;28;20146;-47